sensor_id;sensor_type;location;lat;lon;timestamp;P1;durP1;ratioP1;P2;durP2;ratioP2
52456;SDS011;38369;52.840;7.082;2023-04-07T00:01:57;23.02;;;17.67;;
52456;SDS011;38369;52.840;7.082;2023-04-07T00:04:23;25.45;;;18.38;;
52456;SDS011;38369;52.840;7.082;2023-04-07T00:06:49;28.58;;;19.45;;
52456;SDS011;38369;52.840;7.082;2023-04-07T00:09:16;24.30;;;17.83;;
52456;SDS011;38369;52.840;7.082;2023-04-07T00:11:42;26.80;;;19.38;;
52456;SDS011;38369;52.840;7.082;2023-04-07T00:14:08;22.92;;;18.05;;
52456;SDS011;38369;52.840;7.082;2023-04-07T00:16:34;27.55;;;19.67;;
52456;SDS011;38369;52.840;7.082;2023-04-07T00:19:00;26.77;;;19.60;;
52456;SDS011;38369;52.840;7.082;2023-04-07T00:21:26;27.05;;;18.95;;
52456;SDS011;38369;52.840;7.082;2023-04-07T00:23:52;30.60;;;21.67;;
52456;SDS011;38369;52.840;7.082;2023-04-07T00:26:18;27.77;;;21.10;;
52456;SDS011;38369;52.840;7.082;2023-04-07T00:28:45;29.13;;;21.83;;
52456;SDS011;38369;52.840;7.082;2023-04-07T00:31:11;27.80;;;20.25;;
52456;SDS011;38369;52.840;7.082;2023-04-07T00:33:37;27.35;;;19.50;;
52456;SDS011;38369;52.840;7.082;2023-04-07T00:36:03;27.65;;;20.48;;
52456;SDS011;38369;52.840;7.082;2023-04-07T00:38:29;31.63;;;20.65;;
52456;SDS011;38369;52.840;7.082;2023-04-07T00:40:56;30.55;;;21.52;;
52456;SDS011;38369;52.840;7.082;2023-04-07T00:43:23;28.02;;;21.05;;
52456;SDS011;38369;52.840;7.082;2023-04-07T00:45:49;30.13;;;21.17;;
52456;SDS011;38369;52.840;7.082;2023-04-07T00:48:16;27.15;;;19.98;;
52456;SDS011;38369;52.840;7.082;2023-04-07T00:50:43;26.33;;;20.17;;
52456;SDS011;38369;52.840;7.082;2023-04-07T00:53:10;26.08;;;20.30;;
52456;SDS011;38369;52.840;7.082;2023-04-07T00:55:36;26.33;;;19.55;;
52456;SDS011;38369;52.840;7.082;2023-04-07T00:58:02;27.98;;;20.60;;
52456;SDS011;38369;52.840;7.082;2023-04-07T01:00:30;26.98;;;19.70;;
52456;SDS011;38369;52.840;7.082;2023-04-07T01:02:58;26.08;;;20.08;;
52456;SDS011;38369;52.840;7.082;2023-04-07T01:06:08;28.20;;;20.45;;
52456;SDS011;38369;52.840;7.082;2023-04-07T01:08:37;25.50;;;20.37;;
52456;SDS011;38369;52.840;7.082;2023-04-07T01:11:49;22.50;;;15.05;;
52456;SDS011;38369;52.840;7.082;2023-04-07T01:13:54;26.80;;;20.25;;
52456;SDS011;38369;52.840;7.082;2023-04-07T01:16:29;28.02;;;20.52;;
52456;SDS011;38369;52.840;7.082;2023-04-07T01:19:29;26.05;;;19.13;;
52456;SDS011;38369;52.840;7.082;2023-04-07T01:21:43;27.85;;;20.75;;
52456;SDS011;38369;52.840;7.082;2023-04-07T01:26:38;24.15;;;19.13;;
52456;SDS011;38369;52.840;7.082;2023-04-07T01:29:10;24.83;;;18.55;;
52456;SDS011;38369;52.840;7.082;2023-04-07T01:31:38;26.50;;;20.63;;
52456;SDS011;38369;52.840;7.082;2023-04-07T01:34:05;26.88;;;19.40;;
52456;SDS011;38369;52.840;7.082;2023-04-07T01:36:31;25.65;;;19.63;;
52456;SDS011;38369;52.840;7.082;2023-04-07T01:38:58;25.65;;;20.02;;
52456;SDS011;38369;52.840;7.082;2023-04-07T01:41:25;26.75;;;20.05;;
52456;SDS011;38369;52.840;7.082;2023-04-07T01:43:51;29.85;;;20.65;;
52456;SDS011;38369;52.840;7.082;2023-04-07T01:46:17;37.90;;;20.85;;
52456;SDS011;38369;52.840;7.082;2023-04-07T01:48:44;24.95;;;19.15;;
52456;SDS011;38369;52.840;7.082;2023-04-07T01:51:10;27.83;;;20.13;;
52456;SDS011;38369;52.840;7.082;2023-04-07T01:53:41;27.45;;;20.45;;
52456;SDS011;38369;52.840;7.082;2023-04-07T01:56:07;25.85;;;19.25;;
52456;SDS011;38369;52.840;7.082;2023-04-07T01:58:33;23.73;;;17.75;;
52456;SDS011;38369;52.840;7.082;2023-04-07T02:00:59;24.17;;;19.25;;
52456;SDS011;38369;52.840;7.082;2023-04-07T02:03:30;25.90;;;19.17;;
52456;SDS011;38369;52.840;7.082;2023-04-07T02:05:56;26.15;;;19.63;;
52456;SDS011;38369;52.840;7.082;2023-04-07T02:08:27;26.30;;;20.02;;
52456;SDS011;38369;52.840;7.082;2023-04-07T02:10:53;27.17;;;20.67;;
52456;SDS011;38369;52.840;7.082;2023-04-07T02:13:20;25.50;;;19.08;;
52456;SDS011;38369;52.840;7.082;2023-04-07T02:15:47;27.50;;;20.13;;
52456;SDS011;38369;52.840;7.082;2023-04-07T02:18:14;25.48;;;19.10;;
52456;SDS011;38369;52.840;7.082;2023-04-07T02:20:41;26.90;;;19.88;;
52456;SDS011;38369;52.840;7.082;2023-04-07T02:23:08;25.27;;;20.08;;
52456;SDS011;38369;52.840;7.082;2023-04-07T02:25:35;26.50;;;20.50;;
52456;SDS011;38369;52.840;7.082;2023-04-07T02:28:04;25.77;;;20.20;;
52456;SDS011;38369;52.840;7.082;2023-04-07T02:30:31;27.98;;;20.63;;
52456;SDS011;38369;52.840;7.082;2023-04-07T02:32:57;28.50;;;21.45;;
52456;SDS011;38369;52.840;7.082;2023-04-07T02:35:24;25.33;;;20.60;;
52456;SDS011;38369;52.840;7.082;2023-04-07T02:37:50;28.60;;;21.27;;
52456;SDS011;38369;52.840;7.082;2023-04-07T02:40:16;29.65;;;22.23;;
52456;SDS011;38369;52.840;7.082;2023-04-07T02:42:42;30.35;;;21.60;;
52456;SDS011;38369;52.840;7.082;2023-04-07T02:45:09;29.60;;;21.38;;
52456;SDS011;38369;52.840;7.082;2023-04-07T02:47:35;33.47;;;23.00;;
52456;SDS011;38369;52.840;7.082;2023-04-07T02:50:02;30.38;;;21.88;;
52456;SDS011;38369;52.840;7.082;2023-04-07T02:52:28;30.05;;;22.00;;
52456;SDS011;38369;52.840;7.082;2023-04-07T02:54:54;30.60;;;21.85;;
52456;SDS011;38369;52.840;7.082;2023-04-07T02:57:20;30.30;;;21.88;;
52456;SDS011;38369;52.840;7.082;2023-04-07T02:59:47;34.35;;;23.13;;
52456;SDS011;38369;52.840;7.082;2023-04-07T03:02:13;35.05;;;22.83;;
52456;SDS011;38369;52.840;7.082;2023-04-07T03:04:39;28.50;;;21.50;;
52456;SDS011;38369;52.840;7.082;2023-04-07T03:07:05;31.75;;;23.23;;
52456;SDS011;38369;52.840;7.082;2023-04-07T03:09:31;34.42;;;23.67;;
52456;SDS011;38369;52.840;7.082;2023-04-07T03:11:57;35.10;;;24.85;;
52456;SDS011;38369;52.840;7.082;2023-04-07T03:14:24;34.53;;;24.08;;
52456;SDS011;38369;52.840;7.082;2023-04-07T03:16:50;32.17;;;22.65;;
52456;SDS011;38369;52.840;7.082;2023-04-07T03:19:16;34.05;;;23.65;;
52456;SDS011;38369;52.840;7.082;2023-04-07T03:21:42;33.60;;;24.00;;
52456;SDS011;38369;52.840;7.082;2023-04-07T03:24:08;34.58;;;24.55;;
52456;SDS011;38369;52.840;7.082;2023-04-07T03:26:34;33.65;;;23.80;;
52456;SDS011;38369;52.840;7.082;2023-04-07T03:29:00;30.63;;;22.50;;
52456;SDS011;38369;52.840;7.082;2023-04-07T03:31:26;30.88;;;22.98;;
52456;SDS011;38369;52.840;7.082;2023-04-07T03:33:52;36.42;;;23.63;;
52456;SDS011;38369;52.840;7.082;2023-04-07T03:36:18;31.00;;;22.65;;
52456;SDS011;38369;52.840;7.082;2023-04-07T03:38:45;30.98;;;22.50;;
52456;SDS011;38369;52.840;7.082;2023-04-07T03:41:11;31.77;;;22.75;;
52456;SDS011;38369;52.840;7.082;2023-04-07T03:43:38;29.85;;;21.88;;
52456;SDS011;38369;52.840;7.082;2023-04-07T03:46:04;31.48;;;22.70;;
52456;SDS011;38369;52.840;7.082;2023-04-07T03:48:30;32.45;;;23.77;;
52456;SDS011;38369;52.840;7.082;2023-04-07T03:50:56;31.52;;;23.27;;
52456;SDS011;38369;52.840;7.082;2023-04-07T03:53:22;31.95;;;22.42;;
52456;SDS011;38369;52.840;7.082;2023-04-07T03:55:48;30.95;;;19.58;;
52456;SDS011;38369;52.840;7.082;2023-04-07T03:58:14;32.80;;;21.63;;
52456;SDS011;38369;52.840;7.082;2023-04-07T04:00:40;30.52;;;21.17;;
52456;SDS011;38369;52.840;7.082;2023-04-07T04:03:07;31.52;;;22.33;;
52456;SDS011;38369;52.840;7.082;2023-04-07T04:05:33;32.80;;;21.63;;
52456;SDS011;38369;52.840;7.082;2023-04-07T04:07:59;33.78;;;22.17;;
52456;SDS011;38369;52.840;7.082;2023-04-07T04:10:25;31.33;;;21.48;;
52456;SDS011;38369;52.840;7.082;2023-04-07T04:12:51;34.00;;;22.17;;
52456;SDS011;38369;52.840;7.082;2023-04-07T04:15:17;35.65;;;22.55;;
52456;SDS011;38369;52.840;7.082;2023-04-07T04:17:43;31.00;;;23.02;;
52456;SDS011;38369;52.840;7.082;2023-04-07T04:20:09;33.03;;;22.60;;
52456;SDS011;38369;52.840;7.082;2023-04-07T04:22:35;35.05;;;22.58;;
52456;SDS011;38369;52.840;7.082;2023-04-07T04:25:01;31.55;;;22.55;;
52456;SDS011;38369;52.840;7.082;2023-04-07T04:27:28;31.55;;;22.48;;
52456;SDS011;38369;52.840;7.082;2023-04-07T04:29:54;31.48;;;22.58;;
52456;SDS011;38369;52.840;7.082;2023-04-07T04:32:20;32.47;;;23.73;;
52456;SDS011;38369;52.840;7.082;2023-04-07T04:34:46;33.53;;;22.23;;
52456;SDS011;38369;52.840;7.082;2023-04-07T04:37:13;33.80;;;23.90;;
52456;SDS011;38369;52.840;7.082;2023-04-07T04:39:39;32.00;;;21.75;;
52456;SDS011;38369;52.840;7.082;2023-04-07T04:42:05;32.35;;;23.48;;
52456;SDS011;38369;52.840;7.082;2023-04-07T04:44:31;32.15;;;21.85;;
52456;SDS011;38369;52.840;7.082;2023-04-07T04:46:57;35.90;;;23.75;;
52456;SDS011;38369;52.840;7.082;2023-04-07T04:49:23;32.70;;;24.23;;
52456;SDS011;38369;52.840;7.082;2023-04-07T04:51:49;34.33;;;24.45;;
52456;SDS011;38369;52.840;7.082;2023-04-07T04:54:17;31.55;;;22.70;;
52456;SDS011;38369;52.840;7.082;2023-04-07T04:56:43;30.67;;;22.70;;
52456;SDS011;38369;52.840;7.082;2023-04-07T04:59:09;35.30;;;24.10;;
52456;SDS011;38369;52.840;7.082;2023-04-07T05:01:35;35.63;;;23.38;;
52456;SDS011;38369;52.840;7.082;2023-04-07T05:04:01;34.42;;;24.27;;
52456;SDS011;38369;52.840;7.082;2023-04-07T05:06:27;35.50;;;22.98;;
52456;SDS011;38369;52.840;7.082;2023-04-07T05:08:53;35.72;;;23.73;;
52456;SDS011;38369;52.840;7.082;2023-04-07T05:11:19;36.92;;;24.75;;
52456;SDS011;38369;52.840;7.082;2023-04-07T05:13:46;34.40;;;23.83;;
52456;SDS011;38369;52.840;7.082;2023-04-07T05:16:12;37.33;;;24.55;;
52456;SDS011;38369;52.840;7.082;2023-04-07T05:18:38;34.20;;;24.65;;
52456;SDS011;38369;52.840;7.082;2023-04-07T05:21:04;37.15;;;25.15;;
52456;SDS011;38369;52.840;7.082;2023-04-07T05:23:30;34.10;;;24.42;;
52456;SDS011;38369;52.840;7.082;2023-04-07T05:25:56;39.15;;;25.98;;
52456;SDS011;38369;52.840;7.082;2023-04-07T05:28:22;36.67;;;24.48;;
52456;SDS011;38369;52.840;7.082;2023-04-07T05:30:49;39.05;;;25.23;;
52456;SDS011;38369;52.840;7.082;2023-04-07T05:33:15;32.00;;;22.95;;
52456;SDS011;38369;52.840;7.082;2023-04-07T05:35:44;32.28;;;23.50;;
52456;SDS011;38369;52.840;7.082;2023-04-07T05:38:11;32.47;;;23.65;;
52456;SDS011;38369;52.840;7.082;2023-04-07T05:40:38;35.58;;;24.35;;
52456;SDS011;38369;52.840;7.082;2023-04-07T05:43:04;34.53;;;23.05;;
52456;SDS011;38369;52.840;7.082;2023-04-07T05:45:30;35.08;;;23.63;;
52456;SDS011;38369;52.840;7.082;2023-04-07T05:47:56;36.83;;;24.77;;
52456;SDS011;38369;52.840;7.082;2023-04-07T05:50:22;34.17;;;23.55;;
52456;SDS011;38369;52.840;7.082;2023-04-07T05:52:48;35.53;;;25.73;;
52456;SDS011;38369;52.840;7.082;2023-04-07T05:55:14;37.17;;;24.95;;
52456;SDS011;38369;52.840;7.082;2023-04-07T05:57:41;39.15;;;24.73;;
52456;SDS011;38369;52.840;7.082;2023-04-07T06:00:07;35.15;;;23.58;;
52456;SDS011;38369;52.840;7.082;2023-04-07T06:02:33;35.50;;;24.55;;
52456;SDS011;38369;52.840;7.082;2023-04-07T06:04:59;33.35;;;23.35;;
52456;SDS011;38369;52.840;7.082;2023-04-07T06:07:25;33.97;;;23.65;;
52456;SDS011;38369;52.840;7.082;2023-04-07T06:09:51;35.28;;;22.70;;
52456;SDS011;38369;52.840;7.082;2023-04-07T06:12:17;34.28;;;23.33;;
52456;SDS011;38369;52.840;7.082;2023-04-07T06:14:45;35.47;;;22.98;;
52456;SDS011;38369;52.840;7.082;2023-04-07T06:17:12;31.48;;;22.13;;
52456;SDS011;38369;52.840;7.082;2023-04-07T06:19:38;35.28;;;22.98;;
52456;SDS011;38369;52.840;7.082;2023-04-07T06:22:04;30.40;;;23.88;;
52456;SDS011;38369;52.840;7.082;2023-04-07T06:24:30;34.78;;;23.05;;
52456;SDS011;38369;52.840;7.082;2023-04-07T06:26:56;30.90;;;22.10;;
52456;SDS011;38369;52.840;7.082;2023-04-07T06:29:22;29.65;;;20.58;;
52456;SDS011;38369;52.840;7.082;2023-04-07T06:31:48;33.15;;;21.63;;
52456;SDS011;38369;52.840;7.082;2023-04-07T06:34:15;30.40;;;20.88;;
52456;SDS011;38369;52.840;7.082;2023-04-07T06:36:41;35.63;;;22.92;;
52456;SDS011;38369;52.840;7.082;2023-04-07T06:39:07;26.83;;;21.08;;
52456;SDS011;38369;52.840;7.082;2023-04-07T06:41:33;31.83;;;21.13;;
52456;SDS011;38369;52.840;7.082;2023-04-07T06:44:00;27.23;;;20.80;;
52456;SDS011;38369;52.840;7.082;2023-04-07T06:46:26;26.17;;;19.65;;
52456;SDS011;38369;52.840;7.082;2023-04-07T06:48:52;30.17;;;20.52;;
52456;SDS011;38369;52.840;7.082;2023-04-07T06:51:18;29.17;;;20.70;;
52456;SDS011;38369;52.840;7.082;2023-04-07T06:53:44;22.60;;;17.58;;
52456;SDS011;38369;52.840;7.082;2023-04-07T06:56:12;26.40;;;19.25;;
52456;SDS011;38369;52.840;7.082;2023-04-07T06:58:38;21.52;;;15.88;;
52456;SDS011;38369;52.840;7.082;2023-04-07T07:01:05;25.10;;;18.00;;
52456;SDS011;38369;52.840;7.082;2023-04-07T07:03:31;23.88;;;17.45;;
52456;SDS011;38369;52.840;7.082;2023-04-07T07:05:58;24.40;;;18.55;;
52456;SDS011;38369;52.840;7.082;2023-04-07T07:08:24;23.77;;;16.65;;
52456;SDS011;38369;52.840;7.082;2023-04-07T07:10:51;23.23;;;16.42;;
52456;SDS011;38369;52.840;7.082;2023-04-07T07:13:17;22.58;;;16.02;;
52456;SDS011;38369;52.840;7.082;2023-04-07T07:15:44;25.15;;;18.20;;
52456;SDS011;38369;52.840;7.082;2023-04-07T07:18:10;21.95;;;16.60;;
52456;SDS011;38369;52.840;7.082;2023-04-07T07:20:36;21.65;;;15.88;;
52456;SDS011;38369;52.840;7.082;2023-04-07T07:23:02;24.58;;;17.70;;
52456;SDS011;38369;52.840;7.082;2023-04-07T07:25:29;20.25;;;17.00;;
52456;SDS011;38369;52.840;7.082;2023-04-07T07:27:55;22.70;;;17.08;;
52456;SDS011;38369;52.840;7.082;2023-04-07T07:30:21;22.95;;;18.40;;
52456;SDS011;38369;52.840;7.082;2023-04-07T07:32:48;24.25;;;19.02;;
52456;SDS011;38369;52.840;7.082;2023-04-07T07:35:14;26.60;;;18.63;;
52456;SDS011;38369;52.840;7.082;2023-04-07T07:37:41;25.42;;;19.05;;
52456;SDS011;38369;52.840;7.082;2023-04-07T07:40:08;24.92;;;18.92;;
52456;SDS011;38369;52.840;7.082;2023-04-07T07:42:35;27.10;;;19.40;;
52456;SDS011;38369;52.840;7.082;2023-04-07T07:45:01;27.88;;;19.75;;
52456;SDS011;38369;52.840;7.082;2023-04-07T07:47:27;24.15;;;18.83;;
52456;SDS011;38369;52.840;7.082;2023-04-07T07:49:53;25.20;;;18.70;;
52456;SDS011;38369;52.840;7.082;2023-04-07T07:52:20;24.60;;;17.88;;
52456;SDS011;38369;52.840;7.082;2023-04-07T07:54:49;25.23;;;18.73;;
52456;SDS011;38369;52.840;7.082;2023-04-07T07:57:15;26.15;;;19.63;;
52456;SDS011;38369;52.840;7.082;2023-04-07T07:59:41;27.02;;;19.42;;
52456;SDS011;38369;52.840;7.082;2023-04-07T08:02:08;21.70;;;17.55;;
52456;SDS011;38369;52.840;7.082;2023-04-07T08:04:35;26.35;;;19.27;;
52456;SDS011;38369;52.840;7.082;2023-04-07T08:07:02;28.45;;;20.33;;
52456;SDS011;38369;52.840;7.082;2023-04-07T08:09:28;25.27;;;19.48;;
52456;SDS011;38369;52.840;7.082;2023-04-07T08:11:56;24.98;;;19.13;;
52456;SDS011;38369;52.840;7.082;2023-04-07T08:14:22;26.08;;;18.35;;
52456;SDS011;38369;52.840;7.082;2023-04-07T08:16:48;25.90;;;18.83;;
52456;SDS011;38369;52.840;7.082;2023-04-07T08:19:14;27.83;;;19.17;;
52456;SDS011;38369;52.840;7.082;2023-04-07T08:21:40;22.75;;;18.38;;
52456;SDS011;38369;52.840;7.082;2023-04-07T08:24:06;24.50;;;19.60;;
52456;SDS011;38369;52.840;7.082;2023-04-07T08:26:32;26.15;;;19.13;;
52456;SDS011;38369;52.840;7.082;2023-04-07T08:28:58;23.83;;;18.35;;
52456;SDS011;38369;52.840;7.082;2023-04-07T08:31:24;21.45;;;16.38;;
52456;SDS011;38369;52.840;7.082;2023-04-07T08:33:51;22.17;;;16.98;;
52456;SDS011;38369;52.840;7.082;2023-04-07T08:36:25;22.70;;;17.77;;
52456;SDS011;38369;52.840;7.082;2023-04-07T08:38:52;23.48;;;17.27;;
52456;SDS011;38369;52.840;7.082;2023-04-07T08:41:20;23.65;;;16.73;;
52456;SDS011;38369;52.840;7.082;2023-04-07T08:43:49;22.10;;;15.88;;
52456;SDS011;38369;52.840;7.082;2023-04-07T08:46:17;19.75;;;15.70;;
52456;SDS011;38369;52.840;7.082;2023-04-07T08:48:47;23.10;;;16.27;;
52456;SDS011;38369;52.840;7.082;2023-04-07T08:51:15;18.83;;;14.73;;
52456;SDS011;38369;52.840;7.082;2023-04-07T08:53:48;18.67;;;14.90;;
52456;SDS011;38369;52.840;7.082;2023-04-07T08:56:19;17.90;;;14.13;;
52456;SDS011;38369;52.840;7.082;2023-04-07T08:58:46;18.92;;;14.73;;
52456;SDS011;38369;52.840;7.082;2023-04-07T09:01:13;17.52;;;13.82;;
52456;SDS011;38369;52.840;7.082;2023-04-07T09:03:43;20.48;;;15.50;;
52456;SDS011;38369;52.840;7.082;2023-04-07T09:06:10;17.95;;;13.77;;
52456;SDS011;38369;52.840;7.082;2023-04-07T09:08:36;17.20;;;14.57;;
52456;SDS011;38369;52.840;7.082;2023-04-07T09:11:02;19.75;;;13.68;;
52456;SDS011;38369;52.840;7.082;2023-04-07T09:13:28;19.23;;;13.88;;
52456;SDS011;38369;52.840;7.082;2023-04-07T09:15:56;18.85;;;13.95;;
52456;SDS011;38369;52.840;7.082;2023-04-07T09:18:22;16.23;;;13.18;;
52456;SDS011;38369;52.840;7.082;2023-04-07T09:23:27;17.50;;;13.63;;
52456;SDS011;38369;52.840;7.082;2023-04-07T09:25:57;15.95;;;13.02;;
52456;SDS011;38369;52.840;7.082;2023-04-07T09:28:41;17.60;;;13.77;;
52456;SDS011;38369;52.840;7.082;2023-04-07T09:31:08;15.90;;;12.90;;
52456;SDS011;38369;52.840;7.082;2023-04-07T09:33:34;15.57;;;13.32;;
52456;SDS011;38369;52.840;7.082;2023-04-07T09:36:01;14.75;;;12.25;;
52456;SDS011;38369;52.840;7.082;2023-04-07T09:38:34;15.25;;;12.65;;
52456;SDS011;38369;52.840;7.082;2023-04-07T09:41:07;20.60;;;15.02;;
52456;SDS011;38369;52.840;7.082;2023-04-07T09:43:34;18.55;;;14.40;;
52456;SDS011;38369;52.840;7.082;2023-04-07T09:46:12;17.88;;;13.65;;
52456;SDS011;38369;52.840;7.082;2023-04-07T09:48:38;17.60;;;12.65;;
52456;SDS011;38369;52.840;7.082;2023-04-07T09:51:12;15.10;;;11.88;;
52456;SDS011;38369;52.840;7.082;2023-04-07T09:53:46;14.55;;;11.40;;
52456;SDS011;38369;52.840;7.082;2023-04-07T09:56:13;14.63;;;11.73;;
52456;SDS011;38369;52.840;7.082;2023-04-07T09:58:40;14.80;;;11.80;;
52456;SDS011;38369;52.840;7.082;2023-04-07T10:01:08;15.20;;;11.90;;
52456;SDS011;38369;52.840;7.082;2023-04-07T10:03:35;16.08;;;11.05;;
52456;SDS011;38369;52.840;7.082;2023-04-07T10:06:01;14.40;;;10.85;;
52456;SDS011;38369;52.840;7.082;2023-04-07T10:08:28;12.32;;;9.70;;
52456;SDS011;38369;52.840;7.082;2023-04-07T10:10:56;11.23;;;8.80;;
52456;SDS011;38369;52.840;7.082;2023-04-07T10:13:22;10.10;;;8.50;;
52456;SDS011;38369;52.840;7.082;2023-04-07T10:15:49;11.57;;;8.85;;
52456;SDS011;38369;52.840;7.082;2023-04-07T10:18:15;12.38;;;10.35;;
52456;SDS011;38369;52.840;7.082;2023-04-07T10:20:42;13.95;;;10.75;;
52456;SDS011;38369;52.840;7.082;2023-04-07T10:23:15;12.05;;;10.15;;
52456;SDS011;38369;52.840;7.082;2023-04-07T10:25:42;15.77;;;11.32;;
52456;SDS011;38369;52.840;7.082;2023-04-07T10:28:10;12.10;;;10.02;;
52456;SDS011;38369;52.840;7.082;2023-04-07T10:30:37;13.85;;;11.50;;
52456;SDS011;38369;52.840;7.082;2023-04-07T10:33:03;15.23;;;10.77;;
52456;SDS011;38369;52.840;7.082;2023-04-07T10:36:01;10.60;;;9.05;;
52456;SDS011;38369;52.840;7.082;2023-04-07T10:38:16;10.00;;;7.47;;
52456;SDS011;38369;52.840;7.082;2023-04-07T10:40:43;10.07;;;8.30;;
52456;SDS011;38369;52.840;7.082;2023-04-07T10:43:09;9.68;;;8.25;;
52456;SDS011;38369;52.840;7.082;2023-04-07T10:48:16;8.68;;;7.10;;
52456;SDS011;38369;52.840;7.082;2023-04-07T10:50:43;9.32;;;7.32;;
52456;SDS011;38369;52.840;7.082;2023-04-07T10:53:10;11.68;;;7.35;;
52456;SDS011;38369;52.840;7.082;2023-04-07T10:58:12;8.77;;;7.50;;
52456;SDS011;38369;52.840;7.082;2023-04-07T11:00:39;11.52;;;8.65;;
52456;SDS011;38369;52.840;7.082;2023-04-07T11:03:11;11.38;;;7.75;;
52456;SDS011;38369;52.840;7.082;2023-04-07T11:05:41;8.38;;;7.38;;
52456;SDS011;38369;52.840;7.082;2023-04-07T11:08:07;11.30;;;7.10;;
52456;SDS011;38369;52.840;7.082;2023-04-07T11:10:34;9.77;;;7.30;;
52456;SDS011;38369;52.840;7.082;2023-04-07T11:13:02;7.97;;;6.13;;
52456;SDS011;38369;52.840;7.082;2023-04-07T11:15:28;6.68;;;5.75;;
52456;SDS011;38369;52.840;7.082;2023-04-07T11:20:55;9.45;;;7.38;;
52456;SDS011;38369;52.840;7.082;2023-04-07T11:23:24;9.63;;;6.75;;
52456;SDS011;38369;52.840;7.082;2023-04-07T11:25:52;8.82;;;7.00;;
52456;SDS011;38369;52.840;7.082;2023-04-07T11:28:18;7.65;;;6.70;;
52456;SDS011;38369;52.840;7.082;2023-04-07T11:30:45;8.52;;;6.43;;
52456;SDS011;38369;52.840;7.082;2023-04-07T11:33:22;7.65;;;6.72;;
52456;SDS011;38369;52.840;7.082;2023-04-07T11:35:53;8.73;;;7.20;;
52456;SDS011;38369;52.840;7.082;2023-04-07T11:38:20;7.60;;;6.43;;
52456;SDS011;38369;52.840;7.082;2023-04-07T11:40:47;7.63;;;6.40;;
52456;SDS011;38369;52.840;7.082;2023-04-07T11:43:20;8.20;;;6.57;;
52456;SDS011;38369;52.840;7.082;2023-04-07T11:46:03;8.63;;;7.03;;
52456;SDS011;38369;52.840;7.082;2023-04-07T11:48:30;6.53;;;5.68;;
52456;SDS011;38369;52.840;7.082;2023-04-07T11:50:56;7.20;;;5.80;;
52456;SDS011;38369;52.840;7.082;2023-04-07T11:53:29;6.68;;;5.85;;
52456;SDS011;38369;52.840;7.082;2023-04-07T11:56:05;8.43;;;6.47;;
52456;SDS011;38369;52.840;7.082;2023-04-07T11:58:34;8.05;;;6.13;;
52456;SDS011;38369;52.840;7.082;2023-04-07T12:01:01;8.68;;;6.35;;
52456;SDS011;38369;52.840;7.082;2023-04-07T12:03:31;9.35;;;6.32;;
52456;SDS011;38369;52.840;7.082;2023-04-07T12:05:57;9.05;;;6.85;;
52456;SDS011;38369;52.840;7.082;2023-04-07T12:08:44;9.73;;;6.43;;
52456;SDS011;38369;52.840;7.082;2023-04-07T12:11:10;7.55;;;6.65;;
52456;SDS011;38369;52.840;7.082;2023-04-07T12:13:36;8.18;;;6.53;;
52456;SDS011;38369;52.840;7.082;2023-04-07T12:16:02;8.95;;;7.05;;
52456;SDS011;38369;52.840;7.082;2023-04-07T12:18:29;7.10;;;6.18;;
52456;SDS011;38369;52.840;7.082;2023-04-07T12:20:55;7.72;;;6.90;;
52456;SDS011;38369;52.840;7.082;2023-04-07T12:23:22;6.88;;;6.00;;
52456;SDS011;38369;52.840;7.082;2023-04-07T12:25:48;7.22;;;6.03;;
52456;SDS011;38369;52.840;7.082;2023-04-07T12:28:15;8.55;;;7.13;;
52456;SDS011;38369;52.840;7.082;2023-04-07T12:30:41;7.82;;;6.63;;
52456;SDS011;38369;52.840;7.082;2023-04-07T12:33:07;8.32;;;6.60;;
52456;SDS011;38369;52.840;7.082;2023-04-07T12:35:33;8.55;;;7.32;;
52456;SDS011;38369;52.840;7.082;2023-04-07T12:37:59;8.38;;;6.65;;
52456;SDS011;38369;52.840;7.082;2023-04-07T12:40:26;9.95;;;7.75;;
52456;SDS011;38369;52.840;7.082;2023-04-07T12:42:53;8.93;;;7.97;;
52456;SDS011;38369;52.840;7.082;2023-04-07T12:45:22;9.48;;;8.48;;
52456;SDS011;38369;52.840;7.082;2023-04-07T12:47:48;8.82;;;7.93;;
52456;SDS011;38369;52.840;7.082;2023-04-07T12:50:14;9.45;;;7.82;;
52456;SDS011;38369;52.840;7.082;2023-04-07T12:52:41;8.52;;;6.88;;
52456;SDS011;38369;52.840;7.082;2023-04-07T12:55:07;9.75;;;7.85;;
52456;SDS011;38369;52.840;7.082;2023-04-07T12:57:33;9.27;;;7.78;;
52456;SDS011;38369;52.840;7.082;2023-04-07T12:59:59;9.00;;;8.10;;
52456;SDS011;38369;52.840;7.082;2023-04-07T13:02:25;8.80;;;7.50;;
52456;SDS011;38369;52.840;7.082;2023-04-07T13:04:51;9.38;;;8.23;;
52456;SDS011;38369;52.840;7.082;2023-04-07T13:07:17;9.32;;;8.00;;
52456;SDS011;38369;52.840;7.082;2023-04-07T13:09:43;9.77;;;7.82;;
52456;SDS011;38369;52.840;7.082;2023-04-07T13:12:10;11.80;;;7.80;;
52456;SDS011;38369;52.840;7.082;2023-04-07T13:14:39;8.95;;;7.38;;
52456;SDS011;38369;52.840;7.082;2023-04-07T13:17:06;11.80;;;9.07;;
52456;SDS011;38369;52.840;7.082;2023-04-07T13:19:32;13.45;;;9.85;;
52456;SDS011;38369;52.840;7.082;2023-04-07T13:21:59;9.45;;;8.10;;
52456;SDS011;38369;52.840;7.082;2023-04-07T13:24:25;11.20;;;8.77;;
52456;SDS011;38369;52.840;7.082;2023-04-07T13:26:51;10.55;;;8.95;;
52456;SDS011;38369;52.840;7.082;2023-04-07T13:29:18;11.23;;;9.20;;
52456;SDS011;38369;52.840;7.082;2023-04-07T13:31:44;11.02;;;9.10;;
52456;SDS011;38369;52.840;7.082;2023-04-07T13:34:11;10.43;;;8.98;;
52456;SDS011;38369;52.840;7.082;2023-04-07T13:36:37;12.70;;;8.85;;
52456;SDS011;38369;52.840;7.082;2023-04-07T13:39:03;12.60;;;8.57;;
52456;SDS011;38369;52.840;7.082;2023-04-07T13:41:29;13.55;;;10.02;;
52456;SDS011;38369;52.840;7.082;2023-04-07T13:43:56;9.80;;;8.05;;
52456;SDS011;38369;52.840;7.082;2023-04-07T13:46:25;11.33;;;9.83;;
52456;SDS011;38369;52.840;7.082;2023-04-07T13:48:52;12.10;;;10.05;;
52456;SDS011;38369;52.840;7.082;2023-04-07T13:51:18;10.77;;;9.48;;
52456;SDS011;38369;52.840;7.082;2023-04-07T13:53:45;11.60;;;9.98;;
52456;SDS011;38369;52.840;7.082;2023-04-07T13:56:11;11.90;;;9.77;;
52456;SDS011;38369;52.840;7.082;2023-04-07T13:58:37;13.93;;;10.23;;
52456;SDS011;38369;52.840;7.082;2023-04-07T14:01:03;12.70;;;10.18;;
52456;SDS011;38369;52.840;7.082;2023-04-07T14:03:29;13.88;;;10.18;;
52456;SDS011;38369;52.840;7.082;2023-04-07T14:05:56;14.45;;;11.15;;
52456;SDS011;38369;52.840;7.082;2023-04-07T14:08:25;16.98;;;11.95;;
52456;SDS011;38369;52.840;7.082;2023-04-07T14:10:51;13.05;;;11.30;;
52456;SDS011;38369;52.840;7.082;2023-04-07T14:13:17;12.50;;;11.07;;
52456;SDS011;38369;52.840;7.082;2023-04-07T14:15:43;14.40;;;12.85;;
52456;SDS011;38369;52.840;7.082;2023-04-07T14:18:10;13.00;;;11.55;;
52456;SDS011;38369;52.840;7.082;2023-04-07T14:20:36;14.90;;;12.18;;
52456;SDS011;38369;52.840;7.082;2023-04-07T14:23:02;13.98;;;12.10;;
52456;SDS011;38369;52.840;7.082;2023-04-07T14:25:28;14.23;;;12.18;;
52456;SDS011;38369;52.840;7.082;2023-04-07T14:27:54;16.02;;;12.63;;
52456;SDS011;38369;52.840;7.082;2023-04-07T14:30:20;14.95;;;12.38;;
52456;SDS011;38369;52.840;7.082;2023-04-07T14:32:46;13.68;;;11.80;;
52456;SDS011;38369;52.840;7.082;2023-04-07T14:35:12;14.57;;;11.60;;
52456;SDS011;38369;52.840;7.082;2023-04-07T14:37:39;12.30;;;10.68;;
52456;SDS011;38369;52.840;7.082;2023-04-07T14:40:05;14.35;;;11.88;;